Time;durP1;ratioP1;P1;durP2;ratioP2;P2;SDS_P1;SDS_P2;PMS_P1;PMS_P2;Temp;Humidity;BMP_temperature;BMP_pressure;BME280_temperature;BME280_humidity;BME280_pressure;Samples;Min_cycle;Max_cycle;Signal;HPM_P1;HPM_P2
2022/06/16 00:03:41;;;;;;;1.50;1.40;;;;;;;17.96;47.36;100117.88;7657136;32;38598;-73
2022/06/16 00:07:58;;;;;;;3.47;1.77;;;;;;;18.05;47.39;100119.88;7657087;32;37804;-73
2022/06/16 00:12:14;;;;;;;2.28;1.50;;;;;;;17.93;48.81;100118.47;7657493;32;40045;-74
2022/06/16 00:16:30;;;;;;;2.28;1.48;;;;;;;17.82;49.27;100108.81;7657125;32;40876;-73
2022/06/16 00:20:46;;;;;;;2.55;1.50;;;;;;;17.92;48.30;100105.00;7657221;32;37962;-72
2022/06/16 00:25:04;;;;;;;2.92;1.75;;;;;;;17.78;47.97;100114.13;7657087;32;37095;-72
2022/06/16 00:29:20;;;;;;;3.47;1.75;;;;;;;17.76;47.01;100107.28;7657005;32;39456;-73
2022/06/16 00:33:36;;;;;;;2.37;1.75;;;;;;;17.91;47.72;100111.66;7656967;32;40905;-73
2022/06/16 00:37:52;;;;;;;3.83;1.80;;;;;;;17.67;49.39;100109.19;7656430;32;37924;-72
2022/06/16 00:42:16;;;;;;;1.67;1.50;;;;;;;17.65;49.24;100103.97;7656716;32;37033;-72
2022/06/16 00:46:32;;;;;;;;;;;;;;;17.58;48.75;100101.63;7643523;32;39523;-74
2022/06/16 00:51:08;;;;;;;2.65;1.62;;;;;;;17.75;48.38;100106.47;7656747;32;40137;-73
2022/06/16 00:55:26;;;;;;;2.72;1.80;;;;;;;17.60;48.83;100102.13;7642916;32;38644;-71
2022/06/16 00:59:43;;;;;;;1.75;1.40;;;;;;;17.45;49.21;100096.97;7656372;32;36999;-73
2022/06/16 01:08:40;;;;;;;2.08;1.50;;;;;;;17.48;49.09;100085.34;7647444;32;39694;-73
2022/06/16 01:18:02;;;;;;;2.33;1.60;;;;;;;17.08;50.06;100077.66;7659714;32;37219;-74
2022/06/16 01:22:46;;;;;;;2.50;1.50;;;;;;;17.24;49.49;100069.88;7659788;32;39381;-74
2022/06/16 01:27:08;;;;;;;2.37;1.62;;;;;;;17.25;49.72;100074.28;7643098;32;39983;-73
2022/06/16 01:31:24;;;;;;;2.30;1.55;;;;;;;17.24;48.40;100069.88;7659446;32;38126;-73
2022/06/16 01:36:07;;;;;;;4.37;1.73;;;;;;;17.29;48.31;100068.16;7659249;32;38175;-73
2022/06/16 01:40:29;;;;;;;2.40;1.70;;;;;;;17.19;49.27;100069.97;7659190;32;39862;-73
2022/06/16 01:44:55;;;;;;;2.25;1.80;;;;;;;17.16;49.84;100065.13;7659448;32;39929;-73
2022/06/16 01:49:24;;;;;;;1.77;1.67;;;;;;;17.36;49.12;100071.28;7646719;32;37600;-73
2022/06/16 01:53:53;;;;;;;1.92;1.62;;;;;;;17.02;50.09;100061.56;7659368;32;36778;-73
2022/06/16 01:58:12;;;;;;;2.05;1.50;;;;;;;16.98;50.23;100066.88;7646855;32;39379;-73
2022/06/16 02:02:32;;;;;;;1.83;1.67;;;;;;;17.17;49.27;100066.72;7659247;32;40029;-73
2022/06/16 02:06:53;;;;;;;1.55;1.45;;;;;;;17.38;48.29;100063.53;7645092;32;38125;-73
2022/06/16 02:11:16;;;;;;;1.83;1.40;;;;;;;16.95;49.26;100058.41;7645622;32;37781;-73
2022/06/16 02:15:51;;;;;;;;;;;;;;;17.12;50.42;100058.56;7645999;32;40042;-73
2022/06/16 02:20:08;;;;;;;1.77;1.58;;;;;;;17.22;49.00;100055.59;7659130;32;40193;-72
2022/06/16 02:24:26;;;;;;;2.70;1.73;;;;;;;17.20;48.82;100057.03;7645413;32;38765;-72
2022/06/16 02:28:43;;;;;;;3.05;1.83;;;;;;;17.16;49.23;100056.03;7645578;32;37189;-72
2022/06/16 02:33:13;;;;;;;2.53;2.00;;;;;;;16.92;50.38;100050.75;7658911;32;39192;-73
2022/06/16 02:37:29;;;;;;;3.78;1.80;;;;;;;17.07;50.07;100050.44;7645454;32;40600;-72
2022/06/16 02:42:01;;;;;;;3.78;1.65;;;;;;;17.26;48.71;100064.88;7658725;32;38738;-73
2022/06/16 02:46:35;;;;;;;2.33;1.50;;;;;;;17.39;48.15;100060.47;7658666;32;37080;-74
2022/06/16 02:51:17;;;;;;;5.50;1.70;;;;;;;17.30;48.58;100064.25;7658552;32;39188;-73
2022/06/16 02:55:50;;;;;;;1.87;1.58;;;;;;;17.17;49.07;100063.97;7658799;32;38872;-72
2022/06/16 03:00:10;;;;;;;5.10;2.00;;;;;;;17.28;49.01;100064.56;7645601;32;38136;-74
2022/06/16 03:04:48;;;;;;;1.95;1.60;;;;;;;17.01;49.81;100059.94;7645301;32;37300;-74
2022/06/16 03:09:05;;;;;;;2.20;1.73;;;;;;;17.22;49.08;100065.81;7632322;32;39336;-74
2022/06/16 03:13:27;;;;;;;2.95;1.70;;;;;;;17.19;49.50;100064.47;7618550;32;40040;-74
2022/06/16 03:17:43;;;;;;;3.92;1.70;;;;;;;17.15;50.53;100068.97;7632201;32;38040;-73
2022/06/16 03:21:59;;;;;;;2.37;1.62;;;;;;;16.95;51.68;100066.66;7632095;32;37850;-73
2022/06/16 03:26:16;;;;;;;1.95;1.65;;;;;;;16.91;51.99;100060.16;7632024;32;39806;-73
2022/06/16 03:30:33;;;;;;;3.90;1.80;;;;;;;17.13;51.51;100067.69;7633844;32;40770;-74
2022/06/16 03:34:49;;;;;;;3.55;1.98;;;;;;;17.09;51.73;100064.69;7657804;32;37594;-73
2022/06/16 03:39:06;;;;;;;2.78;2.05;;;;;;;17.05;52.16;100066.44;7658095;32;37626;-74
2022/06/16 03:43:22;;;;;;;2.67;1.60;;;;;;;17.14;52.11;100069.28;7657892;32;40024;-72
2022/06/16 03:47:38;;;;;;;2.35;1.70;;;;;;;17.16;52.25;100067.87;7657959;32;40817;-72
2022/06/16 03:51:54;;;;;;;1.83;1.70;;;;;;;17.18;52.61;100068.38;7657806;32;38697;-72
2022/06/16 03:56:11;;;;;;;2.35;2.00;;;;;;;17.12;53.17;100066.03;7657816;32;37227;-73
2022/06/16 04:00:28;;;;;;;2.87;1.90;;;;;;;17.31;52.80;100074.97;7657467;32;38996;-72
2022/06/16 04:04:45;;;;;;;3.47;1.90;;;;;;;17.35;53.48;100064.13;7657291;32;40865;-73
2022/06/16 04:09:03;;;;;;;5.97;2.10;;;;;;;17.20;54.40;100063.38;7657086;32;38876;-72
2022/06/16 04:13:19;;;;;;;2.08;1.87;;;;;;;17.55;53.56;100074.69;7657375;32;37787;-72
2022/06/16 04:17:39;;;;;;;3.55;2.10;;;;;;;17.51;54.50;100073.69;7657413;32;39475;-73
2022/06/16 04:21:55;;;;;;;3.05;2.12;;;;;;;17.49;54.76;100070.44;7657143;32;39978;-72
2022/06/16 04:26:11;;;;;;;4.57;2.20;;;;;;;17.56;54.89;100079.09;7656760;32;38761;-73
2022/06/16 04:30:28;;;;;;;3.25;2.45;;;;;;;17.79;54.07;100071.63;7656975;32;38692;-73
2022/06/16 04:34:44;;;;;;;2.45;1.95;;;;;;;17.71;54.30;100074.31;7656687;32;39453;-72
2022/06/16 04:39:00;;;;;;;5.35;2.12;;;;;;;17.89;53.82;100078.06;7656787;32;40023;-73
2022/06/16 04:43:17;;;;;;;4.00;2.17;;;;;;;17.94;54.27;100078.75;7659161;32;38109;-73
2022/06/16 04:47:33;;;;;;;7.60;2.42;;;;;;;17.95;51.99;100080.38;7660119;32;37732;-73
2022/06/16 04:51:50;;;;;;;3.45;2.20;;;;;;;18.06;52.71;100069.91;7660117;32;40044;-73
2022/06/16 04:56:07;;;;;;;8.95;2.33;;;;;;;18.16;52.35;100069.66;7659660;32;40080;-73
2022/06/16 05:00:23;;;;;;;6.20;2.53;;;;;;;18.31;51.98;100070.38;7659817;32;37093;-72
2022/06/16 05:04:42;;;;;;;5.45;2.00;;;;;;;18.08;52.85;100075.13;7659563;32;37122;-72
2022/06/16 05:08:58;;;;;;;2.50;2.00;;;;;;;18.50;52.11;100075.66;7659510;32;41445;-73
2022/06/16 05:13:15;;;;;;;5.85;2.28;;;;;;;18.56;52.54;100071.63;7659490;32;39881;-73
2022/06/16 05:17:32;;;;;;;3.97;2.20;;;;;;;18.77;51.54;100071.84;7659613;32;37959;-72
2022/06/16 05:21:48;;;;;;;2.83;2.40;;;;;;;18.81;52.17;100080.31;7659783;32;36913;-72
2022/06/16 05:26:05;;;;;;;4.70;2.20;;;;;;;18.85;52.62;100075.81;7659539;32;40046;-74
2022/06/16 05:30:21;;;;;;;3.28;2.00;;;;;;;19.16;51.97;100077.66;7659322;32;40995;-72
2022/06/16 05:34:37;;;;;;;2.58;1.90;;;;;;;19.48;50.55;100071.69;7659354;32;37645;-73
2022/06/16 05:38:53;;;;;;;3.05;2.00;;;;;;;19.37;51.67;100075.09;7659554;32;36724;-73
2022/06/16 05:43:13;;;;;;;4.55;1.90;;;;;;;19.74;51.40;100073.66;7659181;32;39859;-72
2022/06/16 05:47:29;;;;;;;1.98;1.80;;;;;;;19.87;51.64;100072.69;7659304;32;40675;-73
2022/06/16 05:51:46;;;;;;;6.65;2.10;;;;;;;20.17;51.34;100070.00;7658799;32;38459;-73
2022/06/16 05:56:02;;;;;;;4.62;2.33;;;;;;;20.22;50.96;100055.19;7659092;32;37161;-77
2022/06/16 06:00:18;;;;;;;4.35;2.10;;;;;;;20.60;49.68;100057.16;7659316;32;39117;-77
2022/06/16 06:04:34;;;;;;;4.28;2.15;;;;;;;20.50;49.48;100069.41;7658313;32;39972;-72
2022/06/16 06:18:03;;;;;;;5.22;2.10;;;;;;;21.12;49.72;100067.19;7647679;32;39982;-73
2022/06/16 06:22:24;;;;;;;2.53;1.90;;;;;;;21.15;49.97;100063.75;7658570;32;40020;-73
2022/06/16 06:26:40;;;;;;;9.52;2.67;;;;;;;21.37;49.42;100059.84;7658707;32;38620;-72
2022/06/16 06:30:56;;;;;;;2.33;1.75;;;;;;;21.69;49.05;100066.59;7645321;32;37718;-73
2022/06/16 06:35:13;;;;;;;3.08;1.70;;;;;;;22.22;45.57;100060.53;7658424;32;40084;-75
2022/06/16 06:39:30;;;;;;;4.12;1.98;;;;;;;22.13;47.45;100078.09;7645181;32;39609;-78
2022/06/16 06:43:46;;;;;;;4.97;1.70;;;;;;;22.48;44.59;100068.59;7658667;32;38987;-75
2022/06/16 06:48:04;;;;;;;2.60;1.50;;;;;;;22.79;44.20;100062.47;7658591;32;37825;-75
2022/06/16 06:52:20;;;;;;;4.25;2.05;;;;;;;22.66;44.35;100058.06;7658701;32;39351;-75
2022/06/16 06:56:36;;;;;;;4.47;2.17;;;;;;;22.55;46.54;100063.25;7658464;32;40754;-79
2022/06/16 07:00:53;;;;;;;8.77;1.90;;;;;;;22.75;45.96;100057.94;7657886;32;38001;-77
2022/06/16 07:05:10;;;;;;;6.72;1.62;;;;;;;23.28;41.29;100055.25;7657081;32;37072;-78
2022/06/16 07:09:33;;;;;;;3.55;1.55;;;;;;;23.34;41.94;100048.28;7658354;32;40109;-77
2022/06/16 07:13:49;;;;;;;3.67;1.77;;;;;;;23.85;39.00;100051.38;7658027;32;40729;-76
2022/06/16 07:18:06;;;;;;;7.65;2.25;;;;;;;23.97;41.33;100048.53;7657891;32;38558;-74
2022/06/16 07:22:22;;;;;;;3.58;1.58;;;;;;;23.75;41.56;100058.22;7657210;32;38102;-74
2022/06/16 07:26:38;;;;;;;5.95;1.92;;;;;;;24.10;38.80;100045.69;7657435;32;39402;-73
2022/06/16 07:30:55;;;;;;;2.87;1.73;;;;;;;24.33;39.95;100049.47;7657485;32;39841;-73
2022/06/16 07:35:31;;;;;;;4.55;1.60;;;;;;;24.69;39.84;100044.81;7656408;32;38340;-74
2022/06/16 07:39:47;;;;;;;3.10;1.65;;;;;;;25.04;39.75;100043.22;7657317;32;37087;-73
2022/06/16 07:44:05;;;;;;;3.45;1.40;;;;;;;24.88;39.31;100046.06;7657901;32;40205;-73
2022/06/16 07:48:21;;;;;;;3.05;1.62;;;;;;;25.26;38.72;100036.97;7657780;32;39878;-74
2022/06/16 07:52:38;;;;;;;2.58;1.67;;;;;;;25.67;37.63;100036.63;7657524;32;38728;-76
2022/06/16 07:56:54;;;;;;;5.20;1.60;;;;;;;25.77;36.56;100030.44;7642195;32;37833;-74
2022/06/16 08:01:11;;;;;;;2.15;1.50;;;;;;;25.77;38.89;100035.25;7656956;32;39956;-74
2022/06/16 08:05:28;;;;;;;6.07;1.50;;;;;;;26.02;36.10;100024.56;7656834;32;40536;-74
2022/06/16 08:09:44;;;;;;;8.73;1.83;;;;;;;26.62;36.96;100018.41;7656950;32;38825;-73
2022/06/16 08:14:00;;;;;;;2.30;1.50;;;;;;;26.67;34.07;100014.50;7655978;32;37053;-74
2022/06/16 08:18:19;;;;;;;3.97;1.70;;;;;;;26.60;35.55;100015.16;7655931;32;39388;-73
2022/06/16 08:22:37;;;;;;;3.10;1.70;;;;;;;26.53;35.56;100027.03;7655459;32;39607;-74
2022/06/16 08:26:53;;;;;;;4.78;1.75;;;;;;;26.93;33.83;100031.28;7656884;32;39452;-73
2022/06/16 08:31:09;;;;;;;7.43;1.83;;;;;;;26.58;35.44;100023.94;7657064;32;37863;-74
2022/06/16 08:35:26;;;;;;;5.18;1.95;;;;;;;26.94;33.50;100018.91;7641881;32;39050;-74
2022/06/16 08:39:42;;;;;;;5.43;1.92;;;;;;;27.11;35.20;100033.50;7652646;32;40497;-74
2022/06/16 08:44:10;;;;;;;7.70;1.90;;;;;;;27.12;35.04;100030.34;7654439;32;37712;-73
2022/06/16 08:48:47;;;;;;;12.48;2.10;;;;;;;27.05;32.38;100041.44;7655549;32;38038;-73
2022/06/16 08:53:23;;;;;;;3.47;1.90;;;;;;;27.51;31.76;100040.47;7656490;32;39028;-74
2022/06/16 08:58:31;;;;;;;8.75;1.95;;;;;;;27.53;29.23;100033.31;7656183;32;40138;-73
2022/06/16 09:03:08;;;;;;;4.45;1.80;;;;;;;27.37;30.49;100034.69;7644754;32;38081;-74
2022/06/16 09:07:48;;;;;;;2.97;1.75;;;;;;;28.13;29.51;100022.38;7656137;32;37890;-75
2022/06/16 09:12:25;;;;;;;5.97;1.83;;;;;;;28.08;29.08;100023.53;7656076;32;40048;-74
2022/06/16 09:17:08;;;;;;;2.05;1.60;;;;;;;28.04;27.98;100015.06;7655669;32;40815;-75
2022/06/16 09:21:40;;;;;;;2.17;1.50;;;;;;;28.18;28.87;100000.41;7642997;32;38142;-75
2022/06/16 09:26:09;;;;;;;2.83;1.83;;;;;;;28.36;28.09;99996.97;7655654;32;36998;-75
2022/06/16 09:30:31;;;;;;;4.72;1.83;;;;;;;28.54;27.68;100005.50;7659528;32;39354;-75
2022/06/16 09:35:10;;;;;;;9.50;1.97;;;;;;;28.09;28.92;99997.91;7659606;32;40869;-74
2022/06/16 09:39:34;;;;;;;5.20;1.67;;;;;;;28.56;29.13;100003.13;7659474;32;38639;-74
2022/06/16 09:44:04;;;;;;;6.00;1.80;;;;;;;28.43;26.99;100002.63;7647618;32;37770;-75
2022/06/16 09:48:35;;;;;;;3.43;1.57;;;;;;;28.61;27.49;99994.37;7646458;32;40116;-73
2022/06/16 09:53:05;;;;;;;4.45;1.80;;;;;;;28.40;26.45;99990.16;7659421;32;40566;-75
2022/06/16 09:57:32;;;;;;;4.32;1.90;;;;;;;28.90;26.88;100003.78;7659304;32;38770;-75
2022/06/16 10:02:03;;;;;;;5.47;1.67;;;;;;;29.05;25.61;99995.47;7646461;32;37150;-74
2022/06/16 10:06:43;;;;;;;4.25;1.92;;;;;;;29.10;25.30;99995.09;7646682;32;39905;-74
2022/06/16 10:11:09;;;;;;;2.22;1.60;;;;;;;29.25;26.01;100002.38;7659237;32;39628;-75
2022/06/16 10:15:35;;;;;;;3.03;1.58;;;;;;;29.30;25.26;99990.75;7645649;32;38735;-74
2022/06/16 10:19:52;;;;;;;2.60;1.60;;;;;;;29.75;24.42;99994.16;7646263;32;36946;-74
2022/06/16 10:24:08;;;;;;;6.28;2.00;;;;;;;30.33;26.21;99992.22;7659312;32;40192;-74
2022/06/16 10:28:34;;;;;;;6.28;1.98;;;;;;;30.64;24.22;99989.81;7645356;32;40719;-73
2022/06/16 10:33:14;;;;;;;3.80;1.62;;;;;;;30.28;23.42;99995.41;7659021;32;38729;-74
2022/06/16 10:37:31;;;;;;;6.35;1.52;;;;;;;29.97;24.13;99994.19;7658747;32;37797;-74
2022/06/16 10:42:03;;;;;;;2.42;1.65;;;;;;;29.78;23.20;99995.38;7645854;32;39333;-75
2022/06/16 10:46:29;;;;;;;3.03;1.73;;;;;;;30.65;21.86;99987.78;7658651;32;39615;-74
2022/06/16 10:51:03;;;;;;;3.78;1.70;;;;;;;30.49;25.42;99985.41;7658689;32;38472;-74
2022/06/16 10:55:23;;;;;;;2.83;1.62;;;;;;;30.41;22.65;99979.00;7645093;32;37123;-74
2022/06/16 10:59:45;;;;;;;2.70;1.42;;;;;;;30.77;22.98;99973.31;7658641;32;39322;-74
2022/06/16 11:04:11;;;;;;;3.30;1.80;;;;;;;31.19;20.98;99962.34;7658615;32;40025;-74
2022/06/16 11:08:38;;;;;;;6.18;1.83;;;;;;;31.01;21.27;99954.78;7658426;32;38604;-74
2022/06/16 11:13:04;;;;;;;6.72;1.77;;;;;;;31.35;20.87;99945.78;7657998;32;37608;-75
2022/06/16 11:17:30;;;;;;;3.42;1.73;;;;;;;32.02;21.87;99931.69;7645095;32;39258;-74
2022/06/16 11:21:46;;;;;;;6.20;1.37;;;;;;;32.11;20.76;99925.59;7645442;32;40741;-74
2022/06/16 11:26:28;;;;;;;5.82;1.30;;;;;;;32.44;21.44;99920.47;7658178;32;37872;-75
2022/06/16 11:30:56;;;;;;;3.33;1.33;;;;;;;32.73;19.57;99918.94;7658326;32;37858;-74
2022/06/16 11:35:47;;;;;;;3.62;1.65;;;;;;;32.93;20.28;99916.31;7657894;32;39532;-75
2022/06/16 11:40:11;;;;;;;3.03;1.60;;;;;;;33.06;19.95;99912.94;7658151;32;40187;-74
2022/06/16 11:44:33;;;;;;;3.42;1.55;;;;;;;33.04;20.42;99909.72;7644879;32;38368;-74
2022/06/16 11:49:09;;;;;;;5.10;1.92;;;;;;;32.51;18.81;99904.28;7657904;32;37992;-74
2022/06/16 11:54:23;;;;;;;3.28;1.50;;;;;;;32.68;19.92;99898.88;7657795;32;39414;-74
2022/06/16 11:59:11;;;;;;;2.92;1.62;;;;;;;32.14;19.41;99900.19;7575737;33;39985;-75
2022/06/16 12:03:39;;;;;;;4.37;1.80;;;;;;;33.11;21.53;99895.50;7626245;32;37944;-75
2022/06/16 12:08:11;;;;;;;2.05;1.30;;;;;;;32.83;19.88;99910.81;7657644;32;38394;-75
2022/06/16 12:12:49;;;;;;;2.80;1.60;;;;;;;33.44;21.37;99910.03;7645149;32;39401;-74
2022/06/16 12:17:37;;;;;;;3.17;1.70;;;;;;;34.05;20.64;99912.72;7619424;32;40731;-75
2022/06/16 12:22:01;;;;;;;7.82;1.80;;;;;;;33.65;18.85;99904.06;7628151;32;37579;-74
2022/06/16 12:26:28;;;;;;;2.83;1.40;;;;;;;33.89;17.75;99897.66;7615704;32;37315;-74
2022/06/16 12:31:17;;;;;;;3.17;1.48;;;;;;;33.84;18.63;99891.28;7630227;32;40099;-75
2022/06/16 12:35:52;;;;;;;3.10;1.58;;;;;;;34.17;17.94;99879.41;7613670;32;39843;-76
2022/06/16 12:40:17;;;;;;;3.75;1.65;;;;;;;34.37;17.84;99874.59;7630465;32;37986;-75
2022/06/16 12:44:47;;;;;;;4.65;1.48;;;;;;;33.87;18.18;99866.97;7629733;32;36936;-75
2022/06/16 12:49:12;;;;;;;5.45;1.50;;;;;;;34.21;18.11;99866.03;7617839;32;39352;-75
2022/06/16 12:53:35;;;;;;;4.03;1.50;;;;;;;34.56;17.99;99846.75;7629631;32;40799;-74
2022/06/16 12:58:05;;;;;;;2.85;1.48;;;;;;;35.34;18.76;99837.81;7617209;32;37747;-76
2022/06/16 13:02:28;;;;;;;4.72;1.52;;;;;;;35.86;17.30;99811.47;7617922;32;37135;-75
2022/06/16 13:06:45;;;;;;;3.37;1.60;;;;;;;35.82;16.00;99813.56;7632700;32;40097;-75
2022/06/16 13:11:04;;;;;;;6.65;1.95;;;;;;;35.84;16.37;99805.44;7633372;32;40320;-75
2022/06/16 13:15:43;;;;;;;6.20;1.58;;;;;;;35.79;16.06;99803.16;7642738;32;168318;-75
2022/06/16 13:20:08;;;;;;;2.45;1.60;;;;;;;34.78;16.37;99801.84;7659775;32;37970;-75
2022/06/16 13:24:53;;;;;;;3.40;1.40;;;;;;;34.87;17.24;99804.06;7646166;32;39324;-74
2022/06/16 13:29:17;;;;;;;6.68;1.60;;;;;;;34.24;17.58;99809.38;7659290;32;40811;-76
2022/06/16 13:33:45;;;;;;;4.53;1.52;;;;;;;34.61;17.75;99809.44;7646631;32;37957;-75
2022/06/16 13:38:03;;;;;;;6.22;1.80;;;;;;;34.94;18.54;99798.25;7659034;32;37109;-74
2022/06/16 13:42:41;;;;;;;6.62;1.87;;;;;;;35.03;17.16;99784.31;7659539;32;40482;-75
2022/06/16 13:46:57;;;;;;;1.83;1.50;;;;;;;34.79;17.24;99787.25;7658704;32;40039;-75
2022/06/16 13:51:36;;;;;;;6.60;1.58;;;;;;;35.39;18.17;99783.44;7658999;32;38749;-75
2022/06/16 13:55:58;;;;;;;3.17;1.40;;;;;;;35.63;17.41;99775.56;7658827;32;36716;-75
2022/06/16 14:00:32;;;;;;;8.07;1.83;;;;;;;35.06;16.68;99772.06;7658984;32;39386;-74
2022/06/16 14:05:05;;;;;;;5.50;1.70;;;;;;;35.11;17.66;99759.44;7645693;32;39593;-74
2022/06/16 14:09:36;;;;;;;3.42;1.60;;;;;;;35.12;17.95;99753.31;7646644;32;36000;-75
2022/06/16 14:14:20;;;;;;;5.12;1.80;;;;;;;35.15;16.95;99760.94;7658169;32;37943;-76
2022/06/16 14:18:54;;;;;;;1.95;1.40;;;;;;;35.21;16.49;99766.09;7658678;32;40099;-75
2022/06/16 14:23:15;;;;;;;5.57;1.60;;;;;;;34.72;17.04;99764.75;7658420;32;40011;-75
2022/06/16 14:27:38;;;;;;;2.92;1.52;;;;;;;35.43;18.62;99747.34;7644758;32;37952;-74
2022/06/16 14:32:04;;;;;;;4.60;1.77;;;;;;;35.21;16.99;99749.09;7658930;32;37042;-74
2022/06/16 14:36:42;;;;;;;3.45;1.35;;;;;;;36.01;18.13;99731.66;7656306;32;40168;-75
2022/06/16 14:41:19;;;;;;;3.62;1.75;;;;;;;35.90;17.26;99723.44;7647418;32;39981;-75
2022/06/16 14:45:45;;;;;;;3.55;2.05;;;;;;;35.30;16.73;99710.41;7646651;32;38439;-75
2022/06/16 14:50:27;;;;;;;7.75;1.60;;;;;;;36.16;16.42;99701.63;7645731;32;38453;-75
2022/06/16 14:55:03;;;;;;;4.35;1.50;;;;;;;36.56;16.19;99692.75;7658741;32;38402;-75
2022/06/16 14:59:21;;;;;;;9.23;1.90;;;;;;;36.44;16.16;99685.00;7658671;32;40698;-75
2022/06/16 15:03:40;;;;;;;2.80;1.60;;;;;;;34.83;16.45;99701.44;7645079;32;37182;-75
2022/06/16 15:07:56;;;;;;;6.03;1.83;;;;;;;35.52;16.20;99687.97;7645319;32;37788;-75
2022/06/16 15:12:13;;;;;;;4.57;1.62;;;;;;;35.15;16.82;99697.81;7658403;32;40134;-75
2022/06/16 15:21:12;;;;;;;2.45;1.37;;;;;;;34.38;17.37;99716.97;7647157;32;37936;-75
2022/06/16 15:25:39;;;;;;;5.25;1.55;;;;;;;34.72;16.68;99694.00;7643994;32;37818;-74
2022/06/16 15:29:57;;;;;;;3.08;1.62;;;;;;;34.14;16.87;99702.06;7658244;32;39026;-75
2022/06/16 15:38:51;;;;;;;6.28;2.10;;;;;;;34.77;17.78;99684.97;7658070;32;38666;-75
2022/06/16 15:43:09;;;;;;;3.03;1.55;;;;;;;33.96;18.39;99702.44;7658075;32;36932;-75
2022/06/16 15:47:32;;;;;;;6.50;2.05;;;;;;;34.04;17.94;99701.84;7644618;32;39190;-75
2022/06/16 15:51:49;;;;;;;4.07;2.05;;;;;;;33.49;19.30;99700.44;7644601;32;39938;-75
2022/06/16 15:56:07;;;;;;;5.10;2.65;;;;;;;33.02;19.94;99704.03;7657480;32;38773;-75
2022/06/16 16:00:26;;;;;;;6.15;2.47;;;;;;;32.33;22.47;99697.75;7644244;32;36012;-75
2022/06/16 16:04:43;;;;;;;6.72;2.60;;;;;;;32.01;22.56;99698.91;7644288;32;39420;-75
2022/06/16 16:09:00;;;;;;;13.15;3.10;;;;;;;31.62;23.26;99689.69;7657551;32;39916;-75
2022/06/16 16:13:18;;;;;;;7.35;2.40;;;;;;;31.11;24.11;99691.31;7657043;32;37978;-74
2022/06/16 16:17:46;;;;;;;6.43;2.55;;;;;;;31.16;23.65;99688.06;7644001;32;37125;-74
2022/06/16 16:22:08;;;;;;;7.75;3.00;;;;;;;30.87;24.62;99685.44;7657127;32;40062;-75
2022/06/16 16:26:24;;;;;;;12.20;2.87;;;;;;;30.95;24.64;99685.44;7643983;32;40811;-75
2022/06/16 16:30:43;;;;;;;5.80;2.58;;;;;;;30.11;25.52;99675.78;7656704;32;38746;-75
2022/06/16 16:35:00;;;;;;;6.45;3.22;;;;;;;30.40;26.85;99670.06;7655645;32;38328;-74
2022/06/16 16:39:19;;;;;;;7.35;3.17;;;;;;;30.58;25.88;99662.34;7646431;32;40077;-75
2022/06/16 16:43:44;;;;;;;5.00;2.62;;;;;;;30.06;26.85;99659.34;7659980;32;40533;-75
2022/06/16 16:48:17;;;;;;;5.18;2.92;;;;;;;30.13;27.33;99664.94;7659637;32;36800;-75
2022/06/16 16:52:38;;;;;;;8.00;3.15;;;;;;;29.92;28.42;99672.22;7659698;32;37137;-74
2022/06/16 16:56:54;;;;;;;4.93;2.83;;;;;;;29.66;28.43;99676.28;7660065;32;39499;-74
2022/06/16 17:01:12;;;;;;;6.35;3.10;;;;;;;29.37;28.44;99681.16;7660031;32;39970;-74
2022/06/16 17:05:28;;;;;;;9.00;2.65;;;;;;;29.49;29.27;99683.53;7659880;32;38234;-74
2022/06/16 17:09:44;;;;;;;4.95;2.78;;;;;;;29.16;29.43;99688.37;7659824;32;37852;-74
2022/06/16 17:14:03;;;;;;;5.87;3.00;;;;;;;28.99;30.06;99703.19;7659679;32;40136;-74
2022/06/16 17:18:20;;;;;;;6.35;2.67;;;;;;;28.59;31.67;99716.34;7646603;32;39607;-75
2022/06/16 17:22:36;;;;;;;5.70;2.40;;;;;;;28.53;31.94;99723.47;7659766;32;38571;-75
2022/06/16 17:26:52;;;;;;;6.35;2.60;;;;;;;28.57;31.27;99708.31;7658909;32;36074;-74
2022/06/16 17:31:08;;;;;;;5.87;2.35;;;;;;;28.63;32.65;99728.34;7658786;32;40215;-75
2022/06/16 17:35:31;;;;;;;4.68;2.30;;;;;;;28.76;32.01;99740.03;7659450;32;39973;-75
2022/06/16 17:39:48;;;;;;;5.57;2.37;;;;;;;28.70;32.42;99744.41;7659478;32;38597;-74
2022/06/16 17:44:09;;;;;;;4.75;2.28;;;;;;;28.67;32.77;99746.00;7659580;32;38045;-74
2022/06/16 17:48:25;;;;;;;5.05;2.45;;;;;;;28.27;32.95;99747.84;7645940;32;40681;-74
2022/06/16 18:01:42;;;;;;;7.55;3.12;;;;;;;28.16;34.67;99755.38;7659327;32;37883;-74
2022/06/16 18:05:59;;;;;;;5.32;3.37;;;;;;;28.25;35.19;99753.84;7659270;32;40194;-75
2022/06/16 18:10:20;;;;;;;8.25;3.65;;;;;;;28.26;35.92;99749.03;7645758;32;39807;-74
2022/06/16 18:14:36;;;;;;;5.60;2.80;;;;;;;28.18;36.58;99752.97;7645938;32;38106;-74
2022/06/16 18:18:54;;;;;;;3.70;2.37;;;;;;;28.08;36.42;99746.94;7658738;32;37174;-74
2022/06/16 18:23:12;;;;;;;5.55;2.65;;;;;;;27.93;36.19;99759.25;7658957;32;39402;-74
2022/06/16 18:27:28;;;;;;;7.45;2.95;;;;;;;27.86;36.42;99770.38;7658976;32;40818;-74
2022/06/16 18:31:44;;;;;;;3.92;2.30;;;;;;;27.80;36.81;99771.94;7658802;32;38011;-74
2022/06/16 18:36:01;;;;;;;16.40;5.37;;;;;;;27.80;36.94;99766.31;7658923;32;37038;-74
2022/06/16 18:40:18;;;;;;;6.07;2.75;;;;;;;27.59;37.33;99778.97;7658866;32;40073;-74
2022/06/16 18:44:34;;;;;;;6.55;1.73;;;;;;;27.24;37.01;99813.03;7658747;32;40533;-74
2022/06/16 18:48:50;;;;;;;10.45;2.03;;;;;;;26.16;36.97;99851.59;7658641;32;37977;-75
2022/06/16 18:53:13;;;;;;;9.40;1.40;;;;;;;25.68;35.31;99904.22;7658729;32;37966;-77
2022/06/16 18:57:31;;;;;;;3.67;1.08;;;;;;;24.61;36.00;99908.44;7658679;32;39187;-78
2022/06/16 19:01:47;;;;;;;10.38;1.27;;;;;;;24.45;36.40;99923.19;7657390;32;40020;-77
2022/06/16 19:06:04;;;;;;;3.12;1.10;;;;;;;23.66;38.68;99943.47;7658322;32;37617;-77
2022/06/16 19:10:26;;;;;;;5.62;0.95;;;;;;;23.80;38.34;99954.16;7655791;32;37284;-78
2022/06/16 19:14:43;;;;;;;2.87;1.37;;;;;;;23.24;44.14;99960.59;7657893;32;39383;-76
2022/06/16 19:18:59;;;;;;;3.85;1.30;;;;;;;22.64;47.78;99946.47;7657085;32;40049;-76
2022/06/16 19:23:18;;;;;;;5.40;1.23;;;;;;;22.13;52.38;99967.03;7644145;32;37941;-77
2022/06/16 19:27:34;;;;;;;7.07;1.30;;;;;;;21.81;52.32;99990.12;7641585;32;37127;-77
2022/06/16 19:31:50;;;;;;;3.70;1.25;;;;;;;21.00;53.98;100035.44;7656195;32;39580;-76
2022/06/16 19:36:07;;;;;;;3.97;1.42;;;;;;;20.75;54.94;100098.19;7658097;32;40008;-77
2022/06/16 19:40:25;;;;;;;4.00;1.60;;;;;;;20.04;56.60;100106.97;7657892;32;37915;-75
2022/06/16 19:53:57;;;;;;;2.55;1.40;;;;;;;20.03;59.25;100146.88;7637735;32;39921;-76
2022/06/16 19:58:13;;;;;;;4.70;1.42;;;;;;;20.01;59.08;100149.16;7656828;32;37889;-75
2022/06/16 20:02:29;;;;;;;7.45;1.52;;;;;;;20.14;59.27;100159.22;7656673;32;37356;-75
2022/06/16 20:06:45;;;;;;;3.80;1.62;;;;;;;20.19;59.96;100156.28;7656607;32;39842;-76
2022/06/16 20:11:03;;;;;;;7.15;1.52;;;;;;;20.04;59.05;100148.50;7655345;32;39617;-76
2022/06/16 20:15:22;;;;;;;3.80;1.40;;;;;;;20.02;61.51;100099.03;7656707;32;38024;-76
2022/06/16 20:19:38;;;;;;;3.62;1.40;;;;;;;20.36;62.09;100060.50;7643875;32;37100;-76
2022/06/16 20:23:54;;;;;;;5.05;1.60;;;;;;;20.34;61.43;100030.41;7656807;32;39403;-75
2022/06/16 20:28:12;;;;;;;3.40;1.40;;;;;;;20.12;61.10;100012.06;7642880;32;39885;-76
2022/06/16 20:32:28;;;;;;;4.45;1.65;;;;;;;20.05;62.89;100012.56;7655770;32;37581;-77
2022/06/16 20:36:44;;;;;;;4.97;1.65;;;;;;;20.22;62.33;100008.12;7640860;32;37334;-74
2022/06/16 20:41:00;;;;;;;8.80;1.55;;;;;;;20.25;61.58;99994.44;7652964;32;38975;-77
2022/06/16 20:45:17;;;;;;;4.43;1.50;;;;;;;19.92;62.63;100001.69;7648639;32;39897;-77
2022/06/16 20:49:34;;;;;;;4.65;1.40;;;;;;;20.26;61.05;100000.78;7654892;32;38127;-77
2022/06/16 20:53:50;;;;;;;4.97;1.60;;;;;;;20.16;60.99;100001.97;7641511;32;37716;-76
2022/06/16 21:02:42;;;;;;;3.85;1.23;;;;;;;20.20;60.78;99994.63;7642814;32;39560;-77
2022/06/16 21:06:59;;;;;;;3.65;1.37;;;;;;;20.20;61.04;99980.78;7641940;32;37973;-76
2022/06/16 21:15:57;;;;;;;5.78;1.70;;;;;;;19.99;61.38;99986.25;7655027;32;39441;-76
2022/06/16 21:20:32;;;;;;;7.43;1.30;;;;;;;19.91;61.02;99978.78;7654539;32;39500;-77
2022/06/16 21:24:51;;;;;;;3.47;1.77;;;;;;;19.77;61.44;99990.03;7657300;32;37888;-76